createdAt,value
2023-01-23T00:02:06.764Z,14.10
2023-01-23T00:04:29.068Z,12.97
2023-01-23T00:06:51.492Z,13.10
2023-01-23T00:09:13.960Z,14.17
2023-01-23T00:11:36.451Z,14.17
2023-01-23T00:13:58.981Z,13.77
2023-01-23T00:16:23.707Z,13.93
2023-01-23T00:18:46.341Z,14.20
2023-01-23T00:21:10.678Z,13.50
2023-01-23T00:23:33.160Z,13.40
2023-01-23T00:25:55.334Z,13.33
2023-01-23T00:28:17.499Z,14.63
2023-01-23T00:30:40.325Z,12.97
2023-01-23T00:33:02.552Z,13.07
2023-01-23T00:35:24.822Z,12.63
2023-01-23T00:37:48.448Z,12.77
2023-01-23T00:40:11.384Z,13.77
2023-01-23T00:42:33.828Z,13.10
2023-01-23T00:44:56.144Z,13.27
2023-01-23T00:47:19.183Z,12.93
2023-01-23T00:49:41.479Z,13.60
2023-01-23T00:52:09.768Z,12.77
2023-01-23T00:54:32.484Z,13.50
2023-01-23T00:56:54.987Z,12.90
2023-01-23T00:59:18.101Z,12.60
2023-01-23T01:01:43.648Z,12.33
2023-01-23T01:04:09.174Z,12.60
2023-01-23T01:06:31.840Z,12.90
2023-01-23T01:08:54.304Z,13.37
2023-01-23T01:11:18.485Z,14.83
2023-01-23T01:13:41.162Z,12.77
2023-01-23T01:16:10.852Z,12.33
2023-01-23T01:18:34.269Z,13.40
2023-01-23T01:20:59.450Z,13.37
2023-01-23T01:23:21.805Z,12.93
2023-01-23T01:25:44.329Z,13.27
2023-01-23T01:28:09.513Z,12.20
2023-01-23T01:30:31.782Z,12.43
2023-01-23T01:32:55.122Z,12.77
2023-01-23T01:35:17.807Z,13.10
2023-01-23T01:37:41.865Z,11.80
2023-01-23T01:40:08.299Z,12.67
2023-01-23T01:42:30.709Z,12.33
2023-01-23T01:44:58.286Z,11.87
2023-01-23T01:47:20.836Z,12.70
2023-01-23T01:49:43.183Z,12.80
2023-01-23T01:52:10.202Z,12.53
2023-01-23T01:54:37.714Z,11.40
2023-01-23T01:57:04.758Z,12.77
2023-01-23T01:59:29.285Z,12.17
2023-01-23T02:01:57.093Z,12.63
2023-01-23T02:04:20.746Z,12.63
2023-01-23T02:06:44.688Z,12.07
2023-01-23T02:09:27.221Z,13.13
2023-01-23T02:11:50.349Z,12.00
2023-01-23T02:16:52.835Z,13.47
2023-01-23T02:19:30.335Z,12.77
2023-01-23T02:21:56.769Z,13.03
2023-01-23T02:24:29.353Z,11.57
2023-01-23T02:26:51.751Z,12.70
2023-01-23T02:29:17.533Z,11.73
2023-01-23T02:31:46.127Z,11.90
2023-01-23T02:34:11.532Z,11.10
2023-01-23T02:36:37.147Z,11.67
2023-01-23T02:39:04.807Z,11.90
2023-01-23T02:41:29.783Z,11.90
2023-01-23T02:43:54.470Z,12.10
2023-01-23T02:46:19.264Z,12.03
2023-01-23T02:48:46.888Z,12.37
2023-01-23T02:51:09.269Z,12.00
2023-01-23T02:53:31.779Z,12.30
2023-01-23T02:55:57.242Z,11.53
2023-01-23T02:58:40.621Z,12.23
2023-01-23T03:01:06.340Z,11.50
2023-01-23T03:03:30.719Z,11.67
2023-01-23T03:05:54.413Z,10.77
2023-01-23T03:08:17.347Z,11.20
2023-01-23T03:10:40.109Z,11.50
2023-01-23T03:13:04.724Z,11.17
2023-01-23T03:15:28.052Z,11.77
2023-01-23T03:17:51.969Z,11.20
2023-01-23T03:20:14.190Z,11.73
2023-01-23T03:22:37.232Z,10.97
2023-01-23T03:24:59.573Z,11.70
2023-01-23T03:27:21.773Z,11.53
2023-01-23T03:30:06.941Z,12.10
2023-01-23T03:32:30.826Z,12.10
2023-01-23T03:34:53.498Z,12.10
2023-01-23T03:37:16.834Z,11.80
2023-01-23T03:39:59.424Z,11.03
2023-01-23T03:42:22.600Z,11.37
2023-01-23T03:44:47.473Z,11.33
2023-01-23T03:47:09.681Z,11.90
2023-01-23T03:49:34.461Z,11.37
2023-01-23T03:51:56.711Z,11.07
2023-01-23T03:54:18.979Z,10.70
2023-01-23T03:56:42.300Z,11.47
2023-01-23T03:59:09.854Z,10.77
2023-01-23T04:01:32.933Z,11.53
2023-01-23T04:03:55.730Z,10.50
2023-01-23T04:06:18.488Z,11.77
2023-01-23T04:08:42.740Z,10.80
2023-01-23T04:11:06.818Z,10.73
2023-01-23T04:13:29.179Z,10.53
2023-01-23T04:15:51.437Z,11.20
2023-01-23T04:18:13.865Z,11.10
2023-01-23T04:20:36.081Z,10.80
2023-01-23T04:22:58.466Z,9.77
2023-01-23T04:25:22.378Z,10.13
2023-01-23T04:27:44.683Z,9.73
2023-01-23T04:30:08.271Z,10.23
2023-01-23T04:32:30.737Z,10.50
2023-01-23T04:34:53.022Z,9.23
2023-01-23T04:37:15.424Z,9.53
2023-01-23T04:39:37.716Z,9.10
2023-01-23T04:42:00.000Z,9.67
2023-01-23T04:44:41.406Z,9.10
2023-01-23T04:47:21.910Z,9.03
2023-01-23T04:49:45.165Z,9.73
2023-01-23T04:52:07.588Z,9.57
2023-01-23T04:54:33.740Z,8.70
2023-01-23T04:56:56.045Z,9.03
2023-01-23T04:59:18.913Z,10.27
2023-01-23T05:01:41.222Z,9.63
2023-01-23T05:04:03.611Z,8.37
2023-01-23T05:06:25.877Z,9.53
2023-01-23T05:08:52.425Z,8.47
2023-01-23T05:11:30.839Z,9.23
2023-01-23T05:13:53.542Z,8.17
2023-01-23T05:16:16.821Z,8.53
2023-01-23T05:18:59.555Z,8.73
2023-01-23T05:21:22.922Z,9.00
2023-01-23T05:23:45.105Z,8.77
2023-01-23T05:26:09.268Z,8.13
2023-01-23T05:28:31.558Z,8.57
2023-01-23T05:30:54.418Z,9.73
2023-01-23T05:33:23.765Z,9.07
2023-01-23T05:35:46.040Z,9.23
2023-01-23T05:38:09.017Z,8.93
2023-01-23T05:40:32.021Z,9.37
2023-01-23T05:43:12.559Z,9.10
2023-01-23T05:46:04.169Z,8.80
2023-01-23T05:48:42.755Z,8.80
2023-01-23T05:51:06.855Z,8.67
2023-01-23T05:53:29.948Z,8.90
2023-01-23T05:55:52.233Z,9.13
2023-01-23T05:58:16.113Z,10.40
2023-01-23T06:00:47.656Z,13.50
2023-01-23T06:03:38.554Z,12.40
2023-01-23T06:06:26.961Z,11.23
2023-01-23T06:08:49.289Z,10.13
2023-01-23T06:11:11.791Z,9.17
2023-01-23T06:13:34.140Z,9.40
2023-01-23T06:15:56.961Z,9.40
2023-01-23T06:18:21.104Z,9.87
2023-01-23T06:20:43.392Z,9.43
2023-01-23T06:23:05.914Z,9.13
2023-01-23T06:25:28.290Z,9.17
2023-01-23T06:27:54.865Z,8.67
2023-01-23T06:30:19.289Z,9.70
2023-01-23T06:32:43.017Z,9.57
2023-01-23T06:35:06.861Z,8.80
2023-01-23T06:37:33.130Z,9.07
2023-01-23T06:39:55.387Z,8.43
2023-01-23T06:42:17.734Z,8.43
2023-01-23T06:44:43.895Z,9.33
2023-01-23T06:47:07.121Z,10.03
2023-01-23T06:49:29.429Z,10.13
2023-01-23T06:51:51.659Z,13.67
2023-01-23T06:54:14.118Z,10.83
2023-01-23T06:56:36.852Z,8.73
2023-01-23T06:59:01.818Z,10.33
2023-01-23T07:01:29.061Z,9.30
2023-01-23T07:04:13.050Z,9.20
2023-01-23T07:06:36.961Z,8.37
2023-01-23T07:09:15.181Z,9.03
2023-01-23T07:11:41.532Z,8.83
2023-01-23T07:14:04.182Z,8.87
2023-01-23T07:16:28.396Z,9.10
2023-01-23T07:18:51.590Z,8.53
2023-01-23T07:21:13.970Z,8.30
2023-01-23T07:23:41.645Z,8.50
2023-01-23T07:26:09.410Z,8.73
2023-01-23T07:28:31.836Z,8.07
2023-01-23T07:30:54.287Z,9.37
2023-01-23T07:33:17.474Z,9.93
2023-01-23T07:35:40.381Z,8.50
2023-01-23T07:38:02.733Z,8.47
2023-01-23T07:40:25.775Z,8.60
2023-01-23T07:42:48.477Z,8.57
2023-01-23T07:45:11.361Z,9.53
2023-01-23T07:47:34.822Z,8.97
2023-01-23T07:49:57.306Z,8.63
2023-01-23T07:52:28.534Z,8.57
2023-01-23T07:54:50.956Z,8.27
2023-01-23T07:57:13.484Z,7.80
2023-01-23T07:59:36.038Z,7.90
2023-01-23T08:01:58.671Z,7.63
2023-01-23T08:04:21.113Z,8.30
2023-01-23T08:06:44.441Z,7.30
2023-01-23T08:09:06.976Z,7.17
2023-01-23T08:11:29.342Z,7.40
2023-01-23T08:13:52.077Z,7.10
2023-01-23T08:18:50.885Z,7.57
2023-01-23T08:21:13.423Z,7.20
2023-01-23T08:26:17.202Z,10.83
2023-01-23T08:28:39.552Z,9.40
2023-01-23T08:31:06.146Z,7.93
2023-01-23T08:33:29.335Z,8.30
2023-01-23T08:35:55.856Z,6.73
2023-01-23T08:38:21.646Z,7.57
2023-01-23T08:40:44.276Z,6.67
2023-01-23T08:43:07.352Z,7.17
2023-01-23T08:45:30.313Z,6.93
2023-01-23T08:47:52.921Z,6.27
2023-01-23T08:50:15.337Z,6.77
2023-01-23T08:52:37.664Z,6.70
2023-01-23T08:54:59.946Z,5.93
2023-01-23T08:57:22.246Z,6.63
2023-01-23T08:59:44.544Z,5.73
2023-01-23T09:02:06.957Z,5.80
2023-01-23T09:04:29.340Z,5.80
2023-01-23T09:06:51.564Z,5.20
2023-01-23T09:09:13.967Z,5.20
2023-01-23T09:11:37.422Z,5.30
2023-01-23T09:14:00.699Z,5.70
2023-01-23T09:16:23.107Z,5.87
2023-01-23T09:18:45.494Z,5.37
2023-01-23T09:21:09.022Z,8.40
2023-01-23T09:23:31.665Z,9.63
2023-01-23T09:25:53.897Z,5.77
2023-01-23T09:28:16.292Z,5.83
2023-01-23T09:30:52.023Z,5.23
2023-01-23T09:33:14.292Z,6.13
2023-01-23T09:35:37.005Z,5.47
2023-01-23T09:38:00.239Z,6.07
2023-01-23T09:40:23.850Z,5.47
2023-01-23T09:42:46.623Z,5.50
2023-01-23T09:45:11.351Z,5.70
2023-01-23T09:47:37.269Z,6.03
2023-01-23T09:50:03.191Z,5.43
2023-01-23T09:52:29.610Z,5.23
2023-01-23T09:55:14.227Z,6.10
2023-01-23T09:57:40.397Z,5.63
2023-01-23T10:00:11.744Z,5.90
2023-01-23T10:02:35.435Z,6.20
2023-01-23T10:04:58.533Z,6.63
2023-01-23T10:07:27.030Z,6.93
2023-01-23T10:10:10.978Z,8.20
2023-01-23T10:12:59.522Z,6.47
2023-01-23T10:15:29.964Z,7.10
2023-01-23T10:17:59.432Z,6.20
2023-01-23T10:20:33.235Z,6.07
2023-01-23T10:23:07.961Z,6.13
2023-01-23T10:25:33.203Z,5.83
2023-01-23T10:28:10.700Z,5.63
2023-01-23T10:30:38.483Z,5.50
2023-01-23T10:33:13.662Z,6.10
2023-01-23T10:35:47.681Z,6.37
2023-01-23T10:38:23.861Z,5.40
2023-01-23T10:41:08.186Z,5.83
2023-01-23T10:43:30.715Z,4.87
2023-01-23T10:45:54.190Z,5.43
2023-01-23T10:48:36.303Z,5.23
2023-01-23T10:50:59.064Z,5.17
2023-01-23T10:53:25.262Z,7.90
2023-01-23T10:55:48.833Z,13.13
2023-01-23T10:58:23.855Z,8.13
2023-01-23T11:00:47.704Z,5.77
2023-01-23T11:03:39.862Z,5.80
2023-01-23T11:06:11.092Z,6.23
2023-01-23T11:08:38.366Z,6.20
2023-01-23T11:11:16.085Z,6.03
2023-01-23T11:13:38.398Z,6.37
2023-01-23T11:16:03.483Z,5.60
2023-01-23T11:18:33.874Z,6.70
2023-01-23T11:20:56.152Z,6.23
2023-01-23T11:23:19.838Z,6.03
2023-01-23T11:25:43.262Z,6.17
2023-01-23T11:28:28.145Z,6.67
2023-01-23T11:31:14.681Z,7.43
2023-01-23T11:33:44.394Z,5.80
2023-01-23T11:36:21.697Z,8.50
2023-01-23T11:38:58.210Z,6.00
2023-01-23T11:41:21.950Z,5.73
2023-01-23T11:43:44.614Z,6.60
2023-01-23T11:46:22.804Z,7.67
2023-01-23T11:48:46.148Z,7.10
2023-01-23T11:51:08.418Z,6.93
2023-01-23T11:53:42.921Z,6.73
2023-01-23T11:56:19.083Z,6.10
2023-01-23T11:59:11.743Z,6.97
2023-01-23T12:01:52.121Z,7.33
2023-01-23T12:04:36.899Z,6.27
2023-01-23T12:07:08.408Z,6.77
2023-01-23T12:09:49.081Z,6.00
2023-01-23T12:12:11.433Z,6.40
2023-01-23T12:14:36.637Z,17.73
2023-01-23T12:17:25.525Z,16.07
2023-01-23T12:20:01.864Z,7.33
2023-01-23T12:22:40.115Z,7.33
2023-01-23T12:25:10.579Z,6.43
2023-01-23T12:27:47.047Z,6.10
2023-01-23T12:30:25.169Z,6.70
2023-01-23T12:33:12.513Z,6.93
2023-01-23T12:35:40.957Z,7.23
2023-01-23T12:38:07.512Z,6.30
2023-01-23T12:40:34.325Z,6.57
2023-01-23T12:43:14.676Z,6.53
2023-01-23T12:45:39.155Z,6.27
2023-01-23T12:48:07.571Z,6.00
2023-01-23T12:50:36.375Z,5.80
2023-01-23T12:53:02.057Z,5.73
2023-01-23T12:55:47.058Z,5.43
2023-01-23T12:58:13.394Z,6.20
2023-01-23T13:00:54.903Z,5.77
2023-01-23T13:03:37.473Z,6.07
2023-01-23T13:06:18.742Z,5.77
2023-01-23T13:09:05.544Z,7.07
2023-01-23T13:11:41.168Z,5.23
2023-01-23T13:14:03.744Z,5.60
2023-01-23T13:16:46.105Z,5.60
2023-01-23T13:19:40.189Z,6.47
2023-01-23T13:22:19.082Z,6.27
2023-01-23T13:25:13.095Z,5.67
2023-01-23T13:27:35.823Z,6.30
2023-01-23T13:29:59.045Z,6.00
2023-01-23T13:32:23.981Z,5.47
2023-01-23T13:34:47.154Z,6.20
2023-01-23T13:37:27.946Z,5.73
2023-01-23T13:40:13.882Z,6.07
2023-01-23T13:42:36.916Z,5.37
2023-01-23T13:45:17.459Z,5.53
2023-01-23T14:21:40.072Z,6.23
2023-01-23T14:24:16.293Z,6.40
2023-01-23T14:26:48.820Z,7.27
2023-01-23T14:29:20.581Z,8.00
2023-01-23T14:31:46.153Z,10.23
2023-01-23T14:34:17.906Z,6.97
2023-01-23T14:36:44.115Z,6.77
2023-01-23T14:39:06.543Z,6.60
2023-01-23T14:41:31.780Z,6.80
2023-01-23T14:43:55.906Z,6.33
2023-01-23T14:46:20.519Z,6.57
2023-01-23T14:48:43.912Z,7.30
2023-01-23T14:51:08.284Z,6.90
2023-01-23T14:53:30.694Z,7.20
2023-01-23T14:55:53.706Z,6.93
2023-01-23T14:58:24.374Z,7.50
2023-01-23T15:00:47.115Z,6.57
2023-01-23T15:03:12.685Z,6.40
2023-01-23T15:05:38.638Z,6.80
2023-01-23T15:08:21.159Z,7.63
2023-01-23T15:10:43.697Z,7.20
2023-01-23T15:13:21.170Z,7.60
2023-01-23T15:15:48.538Z,6.90
2023-01-23T15:18:24.429Z,7.77
2023-01-23T15:20:53.658Z,7.37
2023-01-23T15:23:19.025Z,6.67
2023-01-23T15:25:41.426Z,8.80
2023-01-23T15:28:25.047Z,7.10
2023-01-23T15:30:48.613Z,6.80
2023-01-23T15:33:30.922Z,7.03
2023-01-23T15:36:14.253Z,7.23
2023-01-23T15:38:50.439Z,8.00
2023-01-23T15:41:13.919Z,6.80
2023-01-23T15:43:37.535Z,7.63
2023-01-23T15:46:00.745Z,7.33
2023-01-23T15:48:25.477Z,8.20
2023-01-23T15:51:13.008Z,8.07
2023-01-23T15:53:36.107Z,8.57
2023-01-23T15:56:00.855Z,10.03
2023-01-23T15:58:24.835Z,8.37
2023-01-23T16:00:47.233Z,9.80
2023-01-23T16:03:14.114Z,8.57
2023-01-23T16:05:40.254Z,8.70
2023-01-23T16:08:05.263Z,7.60
2023-01-23T16:10:34.311Z,8.60
2023-01-23T16:16:05.236Z,8.67
2023-01-23T16:18:30.079Z,7.40
2023-01-23T16:21:15.660Z,8.60
2023-01-23T16:23:47.549Z,7.67
2023-01-23T16:26:18.600Z,8.63
2023-01-23T16:28:43.945Z,8.20
2023-01-23T16:31:06.423Z,7.97
2023-01-23T16:33:30.141Z,8.20
2023-01-23T16:35:52.606Z,7.80
2023-01-23T16:38:25.599Z,8.20
2023-01-23T16:40:53.143Z,7.20
2023-01-23T16:43:17.444Z,7.63
2023-01-23T16:45:44.104Z,7.47
2023-01-23T16:48:12.946Z,8.00
2023-01-23T16:53:26.757Z,8.57
2023-01-23T16:55:57.521Z,11.73
2023-01-23T16:58:21.113Z,9.80
2023-01-23T17:00:46.289Z,13.73
2023-01-23T17:03:21.219Z,9.93
2023-01-23T17:05:43.610Z,10.03
2023-01-23T17:08:20.188Z,8.73
2023-01-23T17:10:52.048Z,8.30
2023-01-23T17:13:58.600Z,8.23
2023-01-23T17:16:27.494Z,7.97
2023-01-23T17:18:50.742Z,7.97
2023-01-23T17:21:17.990Z,7.70
2023-01-23T17:23:40.578Z,8.87
2023-01-23T17:29:31.113Z,7.77
2023-01-23T17:31:57.098Z,8.00
2023-01-23T17:34:28.385Z,8.90
2023-01-23T17:39:54.059Z,8.90
2023-01-23T17:42:17.687Z,8.43
2023-01-23T17:44:40.581Z,9.07
2023-01-23T17:53:42.211Z,15.33
2023-01-23T17:56:04.808Z,16.57
2023-01-23T17:58:29.590Z,9.60
2023-01-23T18:00:53.848Z,9.27
2023-01-23T18:03:18.206Z,8.77
2023-01-23T18:06:35.309Z,8.53
2023-01-23T18:09:02.846Z,8.07
2023-01-23T18:11:26.980Z,8.20
2023-01-23T18:14:06.669Z,8.83
2023-01-23T18:16:50.026Z,8.23
2023-01-23T18:19:24.285Z,8.37
2023-01-23T18:22:14.842Z,8.50
2023-01-23T18:24:42.041Z,7.70
2023-01-23T18:34:51.192Z,8.20
2023-01-23T18:37:33.868Z,8.20
2023-01-23T18:40:05.331Z,8.60
2023-01-23T18:43:05.229Z,8.70
2023-01-23T18:45:31.363Z,8.63
2023-01-23T18:48:00.471Z,8.67
2023-01-23T18:50:32.010Z,8.63
2023-01-23T18:53:36.173Z,9.63
2023-01-23T18:56:22.525Z,7.97
2023-01-23T18:59:11.777Z,8.80
2023-01-23T19:02:28.963Z,8.33
2023-01-23T19:05:26.900Z,9.13
2023-01-23T19:07:49.734Z,8.67
2023-01-23T19:10:26.117Z,9.07
2023-01-23T19:13:34.774Z,9.13
2023-01-23T19:19:22.454Z,9.13
2023-01-23T19:21:48.618Z,11.67
2023-01-23T19:24:12.213Z,9.83
2023-01-23T19:26:36.202Z,10.03
2023-01-23T19:29:11.623Z,10.97
2023-01-23T19:31:39.958Z,10.47
2023-01-23T19:34:03.714Z,9.37
2023-01-23T19:42:20.134Z,8.70
2023-01-23T19:44:48.281Z,9.80
2023-01-23T19:47:13.019Z,8.40
2023-01-23T19:50:03.930Z,9.37
2023-01-23T19:52:27.608Z,8.87
2023-01-23T19:54:50.526Z,10.00
2023-01-23T19:57:14.389Z,9.83
2023-01-23T19:59:36.734Z,10.27
2023-01-23T20:01:59.243Z,9.97
2023-01-23T20:04:23.221Z,9.50
2023-01-23T20:06:52.487Z,9.63
2023-01-23T20:13:20.397Z,8.93
2023-01-23T20:15:42.749Z,9.87
2023-01-23T20:18:08.308Z,9.87
2023-01-23T20:20:31.371Z,9.90
2023-01-23T20:22:54.275Z,9.57
2023-01-23T20:28:18.341Z,9.77
2023-01-23T20:30:41.150Z,10.57
2023-01-23T20:33:05.353Z,9.90
2023-01-23T20:35:28.333Z,9.73
2023-01-23T20:37:54.733Z,8.67
2023-01-23T20:40:30.706Z,9.00
2023-01-23T20:42:54.187Z,8.47
2023-01-23T20:45:21.117Z,9.80
2023-01-23T20:50:53.327Z,9.67
2023-01-23T20:53:45.069Z,9.50
2023-01-23T20:56:15.325Z,9.33
2023-01-23T20:59:00.850Z,9.27
2023-01-23T21:08:34.597Z,9.10
2023-01-23T21:09:02.638Z,9.47
2023-01-23T21:11:25.855Z,9.70
2023-01-23T21:13:53.517Z,9.30
2023-01-23T21:16:16.600Z,9.37
2023-01-23T21:18:54.700Z,9.13
2023-01-23T21:21:18.931Z,7.97
2023-01-23T21:23:43.349Z,8.17
2023-01-23T21:26:06.031Z,8.30
2023-01-23T21:28:29.022Z,8.73
2023-01-23T21:30:53.298Z,8.50
2023-01-23T21:33:28.254Z,9.00
2023-01-23T21:36:03.797Z,8.30
2023-01-23T21:38:26.067Z,9.37
2023-01-23T21:40:56.026Z,8.57
2023-01-23T21:43:58.825Z,8.40
2023-01-23T21:47:06.946Z,8.77
2023-01-23T21:49:31.396Z,8.80
2023-01-23T21:51:56.817Z,8.07
2023-01-23T21:54:23.732Z,9.50
2023-01-23T21:56:47.333Z,9.43
2023-01-23T21:59:13.320Z,9.40
2023-01-23T22:01:54.418Z,9.17
2023-01-23T22:04:24.203Z,8.97
2023-01-23T22:06:48.265Z,9.43
2023-01-23T22:09:14.532Z,9.60
2023-01-23T22:11:44.324Z,9.77
2023-01-23T22:14:06.610Z,10.10
2023-01-23T22:16:46.870Z,10.03
2023-01-23T22:19:15.118Z,13.50
2023-01-23T22:21:39.967Z,10.83
2023-01-23T22:24:02.472Z,8.30
2023-01-23T22:26:24.900Z,9.80
2023-01-23T22:28:47.316Z,14.90
2023-01-23T22:31:12.052Z,13.03
2023-01-23T22:33:40.847Z,9.43
2023-01-23T22:36:04.117Z,9.40
2023-01-23T22:38:27.147Z,9.50
2023-01-23T22:40:57.031Z,9.80
2023-01-23T22:43:19.472Z,8.80
2023-01-23T22:45:41.688Z,9.17
2023-01-23T22:48:03.953Z,9.70
2023-01-23T22:50:27.269Z,10.37
2023-01-23T22:52:49.985Z,9.80
2023-01-23T22:55:12.480Z,8.90
2023-01-23T22:57:35.430Z,9.37
2023-01-23T22:59:58.027Z,9.07
2023-01-23T23:02:20.257Z,9.20
2023-01-23T23:04:42.758Z,8.77
2023-01-23T23:07:05.049Z,9.47
2023-01-23T23:09:29.374Z,8.80
2023-01-23T23:11:52.695Z,8.80
2023-01-23T23:14:14.996Z,9.30
2023-01-23T23:16:37.356Z,8.67
2023-01-23T23:19:01.748Z,9.17
2023-01-23T23:21:25.182Z,8.77
2023-01-23T23:23:47.867Z,8.97
2023-01-23T23:26:10.947Z,9.20
2023-01-23T23:28:36.325Z,9.37
2023-01-23T23:30:58.798Z,9.23
2023-01-23T23:33:21.538Z,9.80
2023-01-23T23:35:44.326Z,9.80
2023-01-23T23:38:06.660Z,9.30
2023-01-23T23:40:31.428Z,9.30
2023-01-23T23:42:53.877Z,10.37
2023-01-23T23:45:19.841Z,9.73
2023-01-23T23:47:45.385Z,9.87
2023-01-23T23:50:07.988Z,9.53
2023-01-23T23:52:30.440Z,9.47
2023-01-23T23:54:52.699Z,9.70
2023-01-23T23:57:15.079Z,10.03
2023-01-23T23:59:37.522Z,9.03
